Time;durP1;ratioP1;P1;durP2;ratioP2;P2;SDS_P1;SDS_P2;PMS_P1;PMS_P2;Temp;Humidity;BMP_temperature;BMP_pressure;BME280_temperature;BME280_humidity;BME280_pressure;Samples;Min_cycle;Max_cycle;Signal;HPM_P1;HPM_P2
2023/12/06 00:02:41;;;;;;;4.43;3.70;;;;;;;22.39;31.79;94686.75;6281986;27;109072;-57
2023/12/06 00:05:44;;;;;;;4.00;3.50;;;;;;;22.39;31.93;94686.75;6264810;27;110099;-57
2023/12/06 00:08:48;;;;;;;4.00;3.60;;;;;;;22.40;31.35;94682.19;6275807;27;108973;-58
2023/12/06 00:11:51;;;;;;;3.97;3.57;;;;;;;22.40;31.41;94682.19;6281274;27;110182;-57
2023/12/06 00:14:56;;;;;;;4.10;3.70;;;;;;;22.42;32.04;94685.34;6268631;27;109855;-57
2023/12/06 00:17:59;;;;;;;3.93;3.47;;;;;;;22.41;31.42;94692.56;6262578;27;109299;-57
2023/12/06 00:21:02;;;;;;;3.23;2.93;;;;;;;22.40;31.52;94688.31;6275529;27;108958;-57
2023/12/06 00:24:06;;;;;;;3.07;2.77;;;;;;;22.40;31.27;94682.19;6266500;27;108947;-57
2023/12/06 00:27:09;;;;;;;3.30;3.00;;;;;;;22.40;31.57;94683.00;6258133;27;109041;-58
2023/12/06 00:30:14;;;;;;;3.20;2.90;;;;;;;22.40;31.37;94676.88;6262611;27;111926;-57
2023/12/06 00:33:17;;;;;;;3.03;2.57;;;;;;;22.40;31.31;94682.19;6267153;27;109237;-57
2023/12/06 00:36:21;;;;;;;3.40;3.10;;;;;;;22.31;31.41;94674.19;6267142;27;110319;-57
2023/12/06 00:39:24;;;;;;;3.80;3.20;;;;;;;22.31;31.87;94673.41;6262065;27;109324;-57
2023/12/06 00:42:28;;;;;;;3.53;2.90;;;;;;;22.30;31.59;94666.53;6285342;27;110233;-57
2023/12/06 00:45:33;;;;;;;3.47;3.17;;;;;;;22.30;31.76;94666.53;6288984;27;110224;-58
2023/12/06 00:48:36;;;;;;;3.40;3.10;;;;;;;22.31;32.02;94662.75;6290079;27;110019;-57
2023/12/06 00:51:39;;;;;;;7.00;2.73;;;;;;;22.30;31.78;94666.53;6262370;27;109698;-57
2023/12/06 00:54:42;;;;;;;3.90;3.50;;;;;;;22.31;31.95;94658.22;6282457;27;110037;-57
2023/12/06 00:57:45;;;;;;;5.23;3.20;;;;;;;22.29;32.02;94665.75;6271106;27;109101;-57
2023/12/06 01:00:51;;;;;;;3.20;2.90;;;;;;;22.29;31.38;94657.75;6285181;27;110110;-57
2023/12/06 01:03:54;;;;;;;3.67;3.20;;;;;;;22.29;32.06;94657.75;6282307;27;110040;-57
2023/12/06 01:06:57;;;;;;;3.80;2.93;;;;;;;22.30;32.00;94661.19;6272440;27;109974;-58
2023/12/06 01:10:01;;;;;;;3.90;3.37;;;;;;;22.31;31.70;94654.75;6279695;27;108944;-58
2023/12/06 01:13:05;;;;;;;3.30;3.00;;;;;;;22.29;31.79;94646.31;6257692;27;109943;-58
2023/12/06 01:16:10;;;;;;;3.30;3.00;;;;;;;22.30;31.93;94643.31;6289203;27;109153;-57
2023/12/06 01:19:15;;;;;;;3.67;3.00;;;;;;;22.29;31.81;94644.41;6288567;27;109021;-57
2023/12/06 01:22:18;;;;;;;3.13;2.83;;;;;;;22.28;31.52;94640.19;6286717;27;109014;-57
2023/12/06 01:25:21;;;;;;;3.20;2.90;;;;;;;22.28;31.77;94636.75;6273298;27;109528;-57
2023/12/06 01:28:24;;;;;;;3.30;3.00;;;;;;;22.28;31.66;94636.75;6270506;27;110107;-57
2023/12/06 01:31:28;;;;;;;3.60;3.10;;;;;;;22.26;31.61;94629.06;6266832;27;109092;-57
2023/12/06 01:34:31;;;;;;;2.97;2.53;;;;;;;22.26;31.57;94618.41;6279182;27;109035;-57
2023/12/06 01:37:35;;;;;;;3.40;3.10;;;;;;;22.26;31.65;94614.94;6259063;27;109044;-56
2023/12/06 01:40:38;;;;;;;3.50;2.93;;;;;;;22.26;32.03;94617.63;6288933;27;108844;-56
2023/12/06 01:43:42;;;;;;;2.77;2.50;;;;;;;22.26;31.76;94617.63;6284049;27;108982;-57
2023/12/06 01:46:47;;;;;;;3.87;2.70;;;;;;;22.26;31.86;94612.28;6280184;27;110096;-58
2023/12/06 01:49:51;;;;;;;3.57;2.90;;;;;;;22.24;31.67;94603.81;6277972;27;109045;-58
2023/12/06 01:52:58;;;;;;;3.00;2.70;;;;;;;22.25;31.74;94594.72;6264743;27;109622;-57
2023/12/06 01:56:01;;;;;;;3.40;3.10;;;;;;;22.22;31.67;94592.69;6280110;27;110450;-57
2023/12/06 01:59:07;;;;;;;2.70;2.40;;;;;;;22.24;31.96;94593.16;6264637;27;109810;-57
2023/12/06 02:02:13;;;;;;;3.07;2.63;;;;;;;22.24;32.11;94599.28;6268347;27;110144;-57
2023/12/06 02:05:17;;;;;;;3.07;2.67;;;;;;;22.24;31.50;94593.94;6288231;27;109001;-58
2023/12/06 02:08:21;;;;;;;2.97;2.67;;;;;;;22.25;32.14;94586.75;6288274;27;109259;-57
2023/12/06 02:11:24;;;;;;;2.90;2.60;;;;;;;22.26;31.67;94586.41;6259449;27;108915;-57
2023/12/06 02:14:33;;;;;;;3.10;2.47;;;;;;;22.26;31.55;94575.75;6275919;27;109252;-57
2023/12/06 02:17:39;;;;;;;2.83;2.53;;;;;;;22.27;31.75;94581.88;6278026;27;109339;-57
2023/12/06 02:20:42;;;;;;;3.20;2.90;;;;;;;22.27;31.88;94576.53;6267909;27;109544;-57
2023/12/06 02:23:47;;;;;;;3.03;2.73;;;;;;;22.26;32.07;94582.97;6270072;27;109216;-57
2023/12/06 02:26:54;;;;;;;2.80;2.50;;;;;;;22.26;31.24;94586.41;6270979;27;109382;-57
2023/12/06 02:29:57;;;;;;;2.93;2.60;;;;;;;22.26;32.02;94583.75;6269755;27;109197;-57
2023/12/06 02:33:00;;;;;;;2.87;2.47;;;;;;;22.22;31.79;94579.38;6249800;27;110047;-57
2023/12/06 02:36:05;;;;;;;2.57;2.37;;;;;;;22.27;31.39;94576.53;6273620;27;110084;-57
2023/12/06 02:39:09;;;;;;;3.23;2.50;;;;;;;22.27;31.55;94579.19;6269100;27;111144;-57
2023/12/06 02:42:13;;;;;;;3.17;2.60;;;;;;;22.27;31.48;94577.31;6262674;27;109757;-57
2023/12/06 02:45:17;;;;;;;2.83;2.40;;;;;;;22.25;31.79;94574.19;6270233;27;109396;-57
2023/12/06 02:48:20;;;;;;;3.17;2.60;;;;;;;22.24;31.40;94572.63;6278356;27;109066;-56
2023/12/06 02:51:23;;;;;;;2.90;2.60;;;;;;;22.26;31.56;94572.31;6266209;27;109972;-57
2023/12/06 02:54:27;;;;;;;2.53;2.30;;;;;;;22.26;31.95;94564.31;6268160;27;110012;-58
2023/12/06 02:57:32;;;;;;;3.13;2.83;;;;;;;22.26;31.55;94561.66;6258777;27;109771;-57
2023/12/06 03:00:35;;;;;;;2.20;2.00;;;;;;;22.25;31.99;94557.41;6267451;27;113037;-57
2023/12/06 03:03:40;;;;;;;3.00;2.60;;;;;;;22.25;32.10;94552.09;6265787;27;108970;-57
2023/12/06 03:06:43;;;;;;;2.90;2.60;;;;;;;22.24;31.91;94545.97;6276507;27;110369;-57
2023/12/06 03:09:46;;;;;;;2.53;2.17;;;;;;;22.26;31.83;94543.00;6274694;27;109344;-57
2023/12/06 03:12:51;;;;;;;2.80;2.40;;;;;;;22.24;31.88;94537.19;6284129;27;109053;-57
2023/12/06 03:15:54;;;;;;;2.77;2.47;;;;;;;22.24;31.77;94534.53;6283614;27;109470;-57
2023/12/06 03:18:57;;;;;;;3.30;2.50;;;;;;;22.24;32.11;94542.53;6262157;27;110055;-57
2023/12/06 03:22:00;;;;;;;3.73;2.87;;;;;;;22.25;31.47;94544.09;6287674;27;108842;-57
2023/12/06 03:25:05;;;;;;;2.60;2.37;;;;;;;22.24;31.71;94548.63;6284194;27;109236;-58
2023/12/06 03:28:10;;;;;;;2.40;2.20;;;;;;;22.26;31.96;94548.31;6261175;27;109079;-58
2023/12/06 03:31:13;;;;;;;3.17;2.50;;;;;;;22.24;31.72;94534.53;6263495;27;110097;-58
2023/12/06 03:34:16;;;;;;;2.40;2.10;;;;;;;22.24;31.94;94534.53;6262095;27;111434;-59
2023/12/06 03:37:19;;;;;;;2.50;2.30;;;;;;;22.22;31.74;94534.84;6261372;27;109305;-58
2023/12/06 03:40:23;;;;;;;3.03;2.27;;;;;;;22.24;32.02;94537.97;6269933;27;109577;-58
2023/12/06 03:43:28;;;;;;;2.40;2.10;;;;;;;22.25;32.01;94544.88;6284440;27;109336;-58
2023/12/06 03:46:31;;;;;;;2.37;2.17;;;;;;;22.26;31.89;94543.78;6261021;27;109325;-58
2023/12/06 03:49:35;;;;;;;3.00;2.30;;;;;;;22.26;31.73;94543.00;6269037;27;109182;-58
2023/12/06 03:52:38;;;;;;;2.80;2.47;;;;;;;22.25;31.41;94546.75;6275077;27;109407;-57
2023/12/06 03:55:41;;;;;;;2.97;2.60;;;;;;;22.25;31.94;94536.09;6284165;27;109105;-58
2023/12/06 03:58:46;;;;;;;2.83;2.20;;;;;;;22.25;31.66;94547.53;6262336;27;109322;-57
2023/12/06 04:01:49;;;;;;;2.60;2.27;;;;;;;22.26;31.36;94527.00;6271700;27;109205;-57
2023/12/06 04:04:53;;;;;;;3.50;2.10;;;;;;;22.10;32.12;94540.06;6256547;27;110031;-59
2023/12/06 04:07:56;;;;;;;3.57;2.27;;;;;;;21.97;32.29;94533.81;6259368;27;108991;-59
2023/12/06 04:10:59;;;;;;;4.13;2.27;;;;;;;21.92;32.91;94533.19;6280424;27;110157;-60
2023/12/06 04:14:04;;;;;;;3.30;2.73;;;;;;;21.88;32.76;94538.38;6259529;27;109180;-58
2023/12/06 04:17:07;;;;;;;3.77;2.67;;;;;;;21.90;32.70;94535.41;6263419;27;110082;-61
2023/12/06 04:20:12;;;;;;;5.87;3.30;;;;;;;21.88;32.47;94535.72;6272884;27;110234;-59
2023/12/06 04:23:16;;;;;;;4.23;3.40;;;;;;;21.96;32.76;94537.56;6273440;27;109260;-60
2023/12/06 04:26:19;;;;;;;9.30;5.40;;;;;;;21.93;32.36;94538.22;6254762;27;109061;-58
2023/12/06 04:29:23;;;;;;;5.10;4.60;;;;;;;21.91;32.33;94540.41;6265251;27;109547;-59
2023/12/06 04:32:26;;;;;;;6.30;5.70;;;;;;;21.91;32.64;94542.28;6284757;27;109043;-58
2023/12/06 04:35:29;;;;;;;7.23;6.53;;;;;;;21.91;32.57;94543.06;6285358;27;109086;-59
2023/12/06 04:38:33;;;;;;;6.13;5.53;;;;;;;21.90;32.47;94540.72;6274944;27;110166;-59
2023/12/06 04:41:36;;;;;;;8.17;5.50;;;;;;;21.71;32.56;94547.16;6283700;27;109128;-61
2023/12/06 04:44:40;;;;;;;8.03;4.20;;;;;;;21.45;33.26;94541.81;6265528;27;109051;-59
2023/12/06 04:47:44;;;;;;;5.97;3.93;;;;;;;21.61;33.41;94539.47;6261556;27;109090;-59
2023/12/06 04:50:47;;;;;;;5.90;3.30;;;;;;;21.66;33.56;94546.50;6266266;27;109194;-63
2023/12/06 04:53:51;;;;;;;6.43;4.07;;;;;;;21.80;33.02;94544.47;6285215;27;109119;-59
2023/12/06 04:56:54;;;;;;;11.23;3.90;;;;;;;21.80;33.46;94545.25;6273099;27;110490;-60
2023/12/06 04:59:59;;;;;;;8.17;4.20;;;;;;;21.77;33.30;94542.44;6271110;27;109252;-60
2023/12/06 05:03:02;;;;;;;7.47;3.40;;;;;;;21.78;33.04;94539.44;6267390;27;109006;-59
2023/12/06 05:06:06;;;;;;;8.83;3.43;;;;;;;21.80;33.63;94537.25;6281660;27;109946;-59
2023/12/06 05:09:10;;;;;;;4.70;3.10;;;;;;;22.05;33.62;94532.25;6277796;27;108956;-59
2023/12/06 05:12:13;;;;;;;5.20;2.47;;;;;;;22.14;33.66;94534.88;6262933;27;109513;-59
2023/12/06 05:15:17;;;;;;;5.23;2.70;;;;;;;21.85;32.33;94538.25;6280865;27;109065;-59
2023/12/06 05:18:24;;;;;;;4.20;2.50;;;;;;;21.89;33.12;94531.97;6274176;27;109021;-61
2023/12/06 05:21:27;;;;;;;4.37;2.57;;;;;;;21.85;32.79;94533.69;6289305;27;108995;-60
2023/12/06 05:24:30;;;;;;;4.87;2.93;;;;;;;21.83;32.92;94530.53;6278641;27;109263;-60
2023/12/06 05:27:34;;;;;;;4.07;3.07;;;;;;;21.82;32.60;94531.63;6289306;27;110971;-59
2023/12/06 05:30:39;;;;;;;3.63;2.33;;;;;;;21.80;33.30;94531.16;6288214;27;109184;-59
2023/12/06 05:33:42;;;;;;;6.70;2.30;;;;;;;21.80;32.77;94523.16;6283599;27;110095;-60
2023/12/06 05:36:45;;;;;;;2.30;2.00;;;;;;;21.80;32.62;94525.81;6283970;27;109203;-60
2023/12/06 05:39:48;;;;;;;2.47;1.97;;;;;;;21.80;32.65;94521.28;6288714;27;109137;-59
2023/12/06 05:42:51;;;;;;;2.20;2.00;;;;;;;21.80;32.78;94521.28;6288505;27;109037;-60
2023/12/06 05:45:56;;;;;;;3.90;2.10;;;;;;;21.81;32.60;94522.84;6277584;27;109401;-61
2023/12/06 05:48:59;;;;;;;2.77;1.93;;;;;;;21.79;32.69;94522.38;6288321;27;109377;-61
2023/12/06 05:52:02;;;;;;;2.70;2.20;;;;;;;21.81;32.62;94511.41;6288514;27;108973;-62
2023/12/06 05:55:06;;;;;;;4.53;2.23;;;;;;;21.80;32.79;94521.28;6288784;27;109029;-62
2023/12/06 05:58:09;;;;;;;2.60;2.00;;;;;;;21.80;32.83;94517.84;6277927;27;109026;-59
2023/12/06 06:01:14;;;;;;;2.90;2.37;;;;;;;21.80;33.09;94515.94;6288340;27;109286;-61
2023/12/06 06:04:17;;;;;;;2.57;2.17;;;;;;;21.79;32.86;94521.59;6288160;27;109047;-60
2023/12/06 06:07:20;;;;;;;3.03;2.30;;;;;;;21.81;32.85;94520.16;6288446;27;109067;-60
2023/12/06 06:10:24;;;;;;;3.77;2.13;;;;;;;21.83;32.87;94522.53;6277106;27;109941;-60
2023/12/06 06:13:29;;;;;;;3.90;1.90;;;;;;;21.82;32.76;94520.97;6287925;27;109160;-62
2023/12/06 06:16:33;;;;;;;1.90;1.70;;;;;;;21.81;32.75;94530.03;6288049;27;109320;-59
2023/12/06 06:19:36;;;;;;;2.40;1.83;;;;;;;21.81;32.75;94522.84;6278839;27;109196;-61
2023/12/06 06:22:39;;;;;;;2.13;1.90;;;;;;;21.81;32.84;94533.50;6287118;27;108993;-60
2023/12/06 06:25:43;;;;;;;2.43;2.10;;;;;;;21.81;32.55;94535.38;6288131;27;109125;-60
2023/12/06 06:28:46;;;;;;;3.20;2.10;;;;;;;21.78;32.77;94536.00;6288262;27;110603;-58
2023/12/06 06:31:51;;;;;;;4.03;2.47;;;;;;;21.78;32.39;94528.03;6276423;27;111784;-60
2023/12/06 06:34:54;;;;;;;3.20;1.67;;;;;;;21.76;32.93;94531.00;6286968;27;109081;-60
2023/12/06 06:37:57;;;;;;;2.50;2.03;;;;;;;21.77;32.58;94531.78;6287719;27;109140;-60
2023/12/06 06:41:00;;;;;;;2.20;1.63;;;;;;;21.77;32.78;94537.09;6287944;27;109115;-60
2023/12/06 06:44:04;;;;;;;2.60;2.03;;;;;;;21.77;32.38;94537.09;6276436;27;108887;-59
2023/12/06 06:47:08;;;;;;;2.23;2.03;;;;;;;21.77;32.84;94539.78;6287729;27;110134;-60
2023/12/06 06:50:15;;;;;;;6.17;1.53;;;;;;;21.79;32.65;94534.91;6287271;27;109213;-60
2023/12/06 06:53:23;;;;;;;2.93;1.93;;;;;;;21.77;32.80;94535.22;6282465;27;108991;-59
2023/12/06 06:56:26;;;;;;;2.33;1.77;;;;;;;21.76;33.02;94536.31;6282373;27;109571;-61
2023/12/06 06:59:29;;;;;;;2.40;2.00;;;;;;;21.75;33.00;94531.31;6287390;27;109081;-61
2023/12/06 07:02:34;;;;;;;2.07;1.87;;;;;;;21.76;32.66;94535.53;6287412;27;109634;-59
2023/12/06 07:05:37;;;;;;;4.17;2.07;;;;;;;21.76;32.95;94539.00;6276462;27;109700;-61
2023/12/06 07:08:41;;;;;;;2.53;1.77;;;;;;;21.76;33.07;94539.00;6288183;27;108603;-60
2023/12/06 07:11:47;;;;;;;2.40;1.90;;;;;;;21.80;32.58;94528.47;6287927;27;110094;-60
2023/12/06 07:14:50;;;;;;;2.23;1.80;;;;;;;21.84;32.83;94536.66;6287094;27;109378;-59
2023/12/06 07:17:55;;;;;;;2.87;1.80;;;;;;;21.83;33.02;94535.09;6276724;27;108695;-59
2023/12/06 07:20:58;;;;;;;2.53;1.90;;;;;;;21.81;32.94;94530.03;6286601;27;110029;-59
2023/12/06 07:24:01;;;;;;;2.93;2.20;;;;;;;21.81;32.95;94538.81;6287012;27;109377;-60
2023/12/06 07:27:05;;;;;;;3.13;2.10;;;;;;;21.80;32.82;94537.25;6287090;27;109468;-59
2023/12/06 07:30:09;;;;;;;3.10;1.80;;;;;;;21.81;33.06;94538.03;6277663;27;110075;-60
2023/12/06 07:33:13;;;;;;;3.63;2.07;;;;;;;21.87;32.83;94549.34;6286302;27;109361;-60
2023/12/06 07:36:17;;;;;;;3.57;1.70;;;;;;;22.02;33.61;94549.66;6287008;27;110603;-59
2023/12/06 07:39:20;;;;;;;2.90;2.13;;;;;;;22.08;33.29;94545.69;6276069;27;109865;-59
2023/12/06 07:42:23;;;;;;;2.67;1.90;;;;;;;22.16;33.25;94549.44;6285887;27;109481;-59
2023/12/06 07:45:27;;;;;;;3.60;2.33;;;;;;;22.05;32.94;94553.56;6286388;27;109313;-60
2023/12/06 07:48:33;;;;;;;2.33;1.80;;;;;;;21.97;33.23;94557.00;6286514;27;109106;-60
2023/12/06 07:51:37;;;;;;;6.17;2.60;;;;;;;21.91;33.14;94552.94;6276215;27;110399;-59
2023/12/06 07:54:40;;;;;;;3.00;2.20;;;;;;;21.86;33.25;94545.13;6286211;27;109181;-59
2023/12/06 07:57:43;;;;;;;2.83;1.80;;;;;;;21.84;33.35;94550.75;6286487;27;109771;-59
2023/12/06 08:00:47;;;;;;;2.67;2.13;;;;;;;21.83;33.45;94551.84;6286000;27;109142;-59
2023/12/06 08:03:52;;;;;;;3.13;2.03;;;;;;;21.81;33.49;94552.13;6275637;27;110111;-59
2023/12/06 08:06:55;;;;;;;2.33;2.00;;;;;;;21.81;33.05;94549.47;6286388;27;109988;-59
2023/12/06 08:09:58;;;;;;;2.60;1.77;;;;;;;21.80;33.18;94547.13;6286194;27;109889;-59
2023/12/06 08:13:02;;;;;;;4.67;2.20;;;;;;;21.80;33.43;94547.91;6281398;27;109989;-61
2023/12/06 08:16:06;;;;;;;2.90;2.17;;;;;;;21.78;32.81;94550.09;6280332;27;109838;-60
2023/12/06 08:19:10;;;;;;;2.50;2.10;;;;;;;21.79;33.24;94550.88;6286042;27;108954;-61
2023/12/06 08:22:13;;;;;;;2.93;2.23;;;;;;;21.79;33.20;94548.22;6286125;27;108779;-59
2023/12/06 08:25:16;;;;;;;3.10;1.90;;;;;;;21.77;33.22;94543.22;6275633;27;109360;-60
2023/12/06 08:28:20;;;;;;;2.30;1.80;;;;;;;21.79;33.36;94542.91;6286455;27;110078;-61
2023/12/06 08:31:23;;;;;;;2.87;2.20;;;;;;;21.79;33.12;94550.88;6286818;27;109119;-59
2023/12/06 08:34:27;;;;;;;2.57;1.93;;;;;;;21.80;33.16;94563.09;6289967;27;109224;-59
2023/12/06 08:37:31;;;;;;;2.10;1.83;;;;;;;21.80;33.20;94557.78;6279403;27;109266;-60
2023/12/06 08:40:34;;;;;;;2.67;2.33;;;;;;;21.80;33.21;94547.13;6289858;27;109093;-59
2023/12/06 08:43:37;;;;;;;3.17;2.00;;;;;;;21.79;33.41;94548.22;6289823;27;108860;-60
2023/12/06 08:46:42;;;;;;;2.60;2.10;;;;;;;21.81;33.32;94548.69;6290134;27;109402;-60
2023/12/06 08:49:46;;;;;;;2.13;1.87;;;;;;;21.80;33.50;94542.59;6280572;27;109285;-60
2023/12/06 08:52:49;;;;;;;2.43;2.23;;;;;;;21.81;32.94;94538.81;6290104;27;109385;-60
2023/12/06 08:55:54;;;;;;;2.20;1.70;;;;;;;21.82;33.07;94536.97;6289918;27;109409;-60
2023/12/06 08:58:57;;;;;;;2.27;1.80;;;;;;;21.83;32.75;94540.41;6279837;27;110138;-60
2023/12/06 09:02:00;;;;;;;3.37;1.80;;;;;;;21.96;32.79;94539.44;6288932;27;110352;-60
2023/12/06 09:05:05;;;;;;;4.10;2.17;;;;;;;21.88;33.27;94534.94;6289649;27;110356;-59
2023/12/06 09:08:08;;;;;;;2.53;1.90;;;;;;;21.88;33.18;94527.72;6289252;27;109176;-58
2023/12/06 09:11:11;;;;;;;3.40;2.00;;;;;;;21.89;33.09;94525.84;6279320;27;109543;-60
2023/12/06 09:14:14;;;;;;;2.40;1.80;;;;;;;21.89;32.95;94523.97;6289347;27;109077;-61
2023/12/06 09:17:18;;;;;;;3.00;1.80;;;;;;;21.89;32.94;94518.63;6289116;27;109049;-61
2023/12/06 09:20:23;;;;;;;2.63;2.00;;;;;;;21.88;32.99;94514.41;6289402;27;109863;-61
2023/12/06 09:23:27;;;;;;;3.00;2.10;;;;;;;21.87;33.33;94510.19;6279079;27;109121;-60
2023/12/06 09:26:31;;;;;;;2.40;2.13;;;;;;;21.87;33.57;94504.84;6289082;27;109285;-61
2023/12/06 09:29:34;;;;;;;3.27;1.87;;;;;;;21.89;33.33;94507.19;6289428;27;109184;-59
2023/12/06 09:32:37;;;;;;;2.20;2.00;;;;;;;21.91;33.33;94505.00;6283157;27;108886;-61
2023/12/06 09:35:41;;;;;;;2.33;2.13;;;;;;;21.91;33.28;94503.13;6283549;27;109046;-61
2023/12/06 09:38:45;;;;;;;11.93;10.93;;;;;;;21.92;33.53;94499.34;6288595;27;109059;-61
2023/12/06 09:41:48;;;;;;;24.90;22.80;;;;;;;21.91;33.51;94494.34;6288117;27;109077;-60
2023/12/06 09:44:51;;;;;;;23.50;21.30;;;;;;;21.92;33.24;94491.38;6278066;27;109195;-60
2023/12/06 09:47:56;;;;;;;24.53;22.43;;;;;;;21.93;33.25;94487.59;6288398;27;108990;-59
2023/12/06 09:51:02;;;;;;;24.07;21.87;;;;;;;21.94;33.33;94493.72;6289110;27;108910;-60
2023/12/06 09:54:05;;;;;;;24.70;22.70;;;;;;;21.94;33.66;94481.16;6288479;27;109342;-59
2023/12/06 09:57:08;;;;;;;23.33;21.33;;;;;;;21.92;33.92;94477.25;6277306;27;109521;-61
2023/12/06 10:00:14;;;;;;;22.50;20.50;;;;;;;21.94;33.80;94488.38;6288174;27;109041;-59
2023/12/06 10:03:21;;;;;;;22.37;20.43;;;;;;;21.91;33.79;94484.47;6287819;27;109121;-60
2023/12/06 10:06:26;;;;;;;21.00;19.30;;;;;;;21.90;33.54;94472.25;6284681;27;109988;-60
2023/12/06 10:09:29;;;;;;;20.20;18.50;;;;;;;21.90;33.57;94482.13;6281797;27;110577;-61
2023/12/06 10:12:32;;;;;;;19.60;18.00;;;;;;;21.89;33.55;94465.38;6287840;27;109204;-60
2023/12/06 10:15:38;;;;;;;19.20;17.50;;;;;;;21.87;34.17;94464.91;6288116;27;110064;-61
2023/12/06 10:18:48;;;;;;;18.37;16.77;;;;;;;21.88;33.65;94457.69;6278069;27;108965;-59
2023/12/06 10:21:56;;;;;;;16.53;15.17;;;;;;;21.87;34.07;94469.44;6288188;27;109317;-60
2023/12/06 10:25:00;;;;;;;16.17;14.87;;;;;;;21.86;34.03;94460.69;6287935;27;109207;-59
2023/12/06 10:28:03;;;;;;;16.27;14.87;;;;;;;21.86;33.64;94457.22;6287841;27;109092;-61
2023/12/06 10:31:07;;;;;;;14.73;13.37;;;;;;;21.85;33.62;94455.66;6276255;27;110750;-60
2023/12/06 10:34:10;;;;;;;14.57;13.23;;;;;;;21.85;33.99;94461.78;6287411;27;109290;-59
2023/12/06 10:37:20;;;;;;;12.77;11.67;;;;;;;21.83;33.79;94447.97;6288008;27;109304;-59
2023/12/06 10:40:25;;;;;;;12.17;11.17;;;;;;;21.84;33.91;94449.53;6287497;27;108961;-59
2023/12/06 10:43:30;;;;;;;12.73;11.33;;;;;;;21.84;33.55;94449.53;6276887;27;110167;-61
2023/12/06 10:46:34;;;;;;;11.30;10.27;;;;;;;21.83;34.04;94444.53;6287564;27;109972;-61
2023/12/06 10:49:38;;;;;;;10.63;9.73;;;;;;;21.85;33.48;94453.00;6287231;27;109161;-59
2023/12/06 10:52:44;;;;;;;10.40;9.43;;;;;;;21.87;33.62;94442.81;6279020;27;109128;-61
2023/12/06 10:55:47;;;;;;;10.20;9.27;;;;;;;21.87;33.99;94437.50;6286404;27;109348;-60
2023/12/06 10:58:52;;;;;;;9.23;8.43;;;;;;;21.86;34.11;94430.59;6287184;27;109146;-59
2023/12/06 11:01:55;;;;;;;8.17;7.53;;;;;;;21.84;33.61;94422.91;6287482;27;110464;-59
2023/12/06 11:05:05;;;;;;;8.17;7.47;;;;;;;21.88;33.47;94436.38;6277661;27;109281;-60
2023/12/06 11:08:34;;;;;;;8.30;7.50;;;;;;;21.88;33.38;94429.16;6287667;27;110009;-60
2023/12/06 11:11:51;;;;;;;7.40;6.80;;;;;;;21.93;33.40;94428.22;6286774;27;109124;-60
2023/12/06 11:15:18;;;;;;;7.70;7.00;;;;;;;21.92;33.61;94429.31;6282810;27;109104;-60
2023/12/06 11:18:24;;;;;;;6.60;6.00;;;;;;;21.90;33.57;94434.97;6284583;27;108967;-62
2023/12/06 11:21:28;;;;;;;6.97;6.37;;;;;;;21.89;34.03;94436.06;6286962;27;109318;-60
2023/12/06 11:24:35;;;;;;;6.80;6.10;;;;;;;21.90;33.49;94434.19;6287067;27;109023;-59
2023/12/06 11:27:41;;;;;;;6.17;5.67;;;;;;;21.88;33.73;94425.72;6251354;27;109432;-58
2023/12/06 11:30:51;;;;;;;6.00;5.50;;;;;;;21.88;33.68;94429.16;6270866;27;110139;-59
2023/12/06 11:33:55;;;;;;;5.47;4.97;;;;;;;21.86;33.90;94420.72;6286725;27;109462;-61
2023/12/06 11:36:58;;;;;;;6.00;5.40;;;;;;;21.87;33.47;94421.50;6286455;27;108810;-60
2023/12/06 11:40:14;;;;;;;5.03;4.53;;;;;;;21.88;33.56;94426.50;6275070;27;109323;-60
2023/12/06 11:43:30;;;;;;;5.70;5.20;;;;;;;21.89;34.22;94420.09;6286420;27;109115;-60
2023/12/06 11:46:33;;;;;;;6.17;5.57;;;;;;;21.88;33.77;94420.41;6286471;27;108901;-60
2023/12/06 11:49:36;;;;;;;4.63;4.23;;;;;;;21.88;33.60;94417.75;6276792;27;108937;-60
2023/12/06 11:52:48;;;;;;;4.80;4.40;;;;;;;21.86;34.14;94418.06;6286111;27;108996;-60
2023/12/06 11:55:54;;;;;;;4.67;4.27;;;;;;;21.88;33.92;94420.41;6286752;27;110103;-61
2023/12/06 11:58:58;;;;;;;4.83;4.40;;;;;;;21.85;33.78;94416.50;6286294;27;108981;-60
2023/12/06 12:02:01;;;;;;;4.20;3.80;;;;;;;21.85;33.87;94416.50;6275771;27;109163;-59
2023/12/06 12:05:06;;;;;;;4.57;4.10;;;;;;;21.84;34.29;94411.47;6285637;27;110049;-61
2023/12/06 12:08:11;;;;;;;4.20;3.80;;;;;;;21.83;33.97;94413.34;6265802;27;110290;-61
2023/12/06 12:11:18;;;;;;;4.27;3.87;;;;;;;21.83;33.89;94416.00;6277507;27;110335;-60
2023/12/06 12:14:21;;;;;;;3.63;3.33;;;;;;;21.81;34.11;94418.19;6281119;27;109012;-61
2023/12/06 12:17:24;;;;;;;3.83;3.40;;;;;;;21.82;34.10;94414.44;6290652;27;110187;-61
2023/12/06 12:20:27;;;;;;;3.43;3.13;;;;;;;21.83;34.25;94417.88;6290585;27;108663;-60
2023/12/06 12:23:30;;;;;;;3.77;3.20;;;;;;;21.82;34.35;94419.78;6281952;27;110010;-66
2023/12/06 12:26:35;;;;;;;4.07;3.20;;;;;;;21.81;33.98;94410.19;6290144;27;111134;-63
2023/12/06 12:29:38;;;;;;;3.80;3.30;;;;;;;21.80;33.84;94417.41;6290726;27;110129;-61
2023/12/06 12:32:44;;;;;;;3.50;3.10;;;;;;;21.80;33.90;94414.75;6289319;27;109192;-61
2023/12/06 12:35:47;;;;;;;3.13;2.83;;;;;;;21.81;33.73;94412.84;6280112;27;110244;-60
2023/12/06 12:38:51;;;;;;;3.03;2.73;;;;;;;21.81;34.12;94412.84;6290560;27;109973;-59
2023/12/06 12:41:56;;;;;;;3.03;2.73;;;;;;;21.82;34.19;94417.13;6290823;27;109551;-60
2023/12/06 12:44:59;;;;;;;2.60;2.40;;;;;;;21.81;33.71;94410.19;6290545;27;109553;-60
2023/12/06 12:48:05;;;;;;;2.50;2.30;;;;;;;21.83;34.17;94415.22;6281168;27;110166;-60
2023/12/06 12:51:15;;;;;;;2.90;2.37;;;;;;;21.83;33.63;94410.69;6290345;27;109117;-59
2023/12/06 12:54:18;;;;;;;2.10;1.90;;;;;;;21.81;34.06;94410.97;6290318;27;109722;-58
2023/12/06 12:57:25;;;;;;;3.03;2.53;;;;;;;21.82;33.96;94417.13;6285090;27;110048;-61
2023/12/06 13:00:31;;;;;;;2.90;2.10;;;;;;;21.82;34.27;94411.78;6286076;27;109062;-59
2023/12/06 13:03:35;;;;;;;2.53;2.17;;;;;;;21.82;33.72;94411.78;6290428;27;109459;-58
2023/12/06 13:06:40;;;;;;;2.90;2.33;;;;;;;21.84;33.84;94412.25;6290165;27;110550;-59
2023/12/06 13:09:49;;;;;;;2.73;2.40;;;;;;;21.83;34.04;94412.56;6280273;27;108989;-59
2023/12/06 13:12:54;;;;;;;2.83;2.63;;;;;;;21.82;34.04;94414.44;6290262;27;110136;-60
2023/12/06 13:15:57;;;;;;;2.50;1.93;;;;;;;21.81;34.07;94415.53;6289852;27;110035;-59
2023/12/06 13:19:00;;;;;;;2.37;2.17;;;;;;;21.81;33.85;94410.97;6289537;27;109448;-60
2023/12/06 13:22:03;;;;;;;2.30;2.10;;;;;;;21.81;33.67;94416.31;6278636;27;109202;-58
2023/12/06 13:25:19;;;;;;;2.73;2.13;;;;;;;21.84;33.85;94414.91;6289766;27;110060;-59
2023/12/06 13:28:23;;;;;;;3.33;2.40;;;;;;;21.88;35.18;94409.75;6289314;27;109971;-60
2023/12/06 13:31:29;;;;;;;2.23;1.70;;;;;;;22.07;34.23;94421.56;6282838;27;108978;-59
2023/12/06 13:34:32;;;;;;;2.30;2.10;;;;;;;22.13;34.00;94418.72;6284653;27;108990;-59
2023/12/06 13:37:36;;;;;;;2.67;2.20;;;;;;;22.14;34.59;94415.72;6288869;27;109145;-58
2023/12/06 13:40:39;;;;;;;2.30;1.80;;;;;;;22.10;34.62;94420.16;6289060;27;108991;-59
2023/12/06 13:43:43;;;;;;;1.97;1.70;;;;;;;22.01;34.44;94416.72;6280338;27;108825;-59
2023/12/06 13:46:46;;;;;;;1.90;1.60;;;;;;;21.94;34.48;94419.91;6289605;27;110000;-60
2023/12/06 13:49:49;;;;;;;2.00;1.70;;;;;;;21.90;34.29;94424.31;6289917;27;109343;-60
2023/12/06 13:52:52;;;;;;;1.57;1.30;;;;;;;21.89;34.07;94422.75;6289260;27;109422;-59
2023/12/06 13:55:55;;;;;;;1.80;1.50;;;;;;;21.87;33.95;94427.63;6278405;27;109195;-59
2023/12/06 13:59:00;;;;;;;2.53;1.80;;;;;;;21.85;34.32;94429.81;6288627;27;109195;-61
2023/12/06 14:02:03;;;;;;;2.80;1.63;;;;;;;21.85;33.87;94435.16;6288828;27;110167;-59
2023/12/06 14:05:07;;;;;;;2.27;1.70;;;;;;;21.84;34.09;94433.56;6284619;27;109066;-60
2023/12/06 14:08:13;;;;;;;2.40;1.70;;;;;;;21.84;34.31;94441.53;6284594;27;109043;-60
2023/12/06 14:11:16;;;;;;;2.10;1.50;;;;;;;21.83;34.38;94439.97;6288888;27;110505;-60
2023/12/06 14:14:20;;;;;;;2.20;1.60;;;;;;;21.84;34.09;94446.09;6288109;27;109075;-60
2023/12/06 14:17:25;;;;;;;3.83;1.70;;;;;;;21.84;33.93;94446.88;6279440;27;109951;-61